sensor_id;sensor_type;location;lat;lon;timestamp;P1;durP1;ratioP1;P2;durP2;ratioP2
45940;SDS011;31858;46.008;8.978;2022-12-29T00:09:26;19.27;;;12.55;;
45940;SDS011;31858;46.008;8.978;2022-12-29T00:19:29;20.35;;;13.80;;
45940;SDS011;31858;46.008;8.978;2022-12-29T00:29:49;27.77;;;15.93;;
45940;SDS011;31858;46.008;8.978;2022-12-29T00:40:09;17.50;;;11.95;;
45940;SDS011;31858;46.008;8.978;2022-12-29T00:50:29;19.53;;;12.87;;
45940;SDS011;31858;46.008;8.978;2022-12-29T01:00:32;17.50;;;11.82;;
45940;SDS011;31858;46.008;8.978;2022-12-29T01:10:33;23.73;;;15.85;;
45940;SDS011;31858;46.008;8.978;2022-12-29T01:20:36;20.63;;;14.65;;
45940;SDS011;31858;46.008;8.978;2022-12-29T01:30:38;20.38;;;14.82;;
45940;SDS011;31858;46.008;8.978;2022-12-29T01:40:44;17.27;;;12.95;;
45940;SDS011;31858;46.008;8.978;2022-12-29T01:50:49;17.67;;;12.35;;
45940;SDS011;31858;46.008;8.978;2022-12-29T02:00:54;19.70;;;14.15;;
45940;SDS011;31858;46.008;8.978;2022-12-29T02:10:56;21.77;;;15.60;;
45940;SDS011;31858;46.008;8.978;2022-12-29T02:31:45;21.95;;;14.57;;
45940;SDS011;31858;46.008;8.978;2022-12-29T02:41:54;15.95;;;10.75;;
45940;SDS011;31858;46.008;8.978;2022-12-29T02:52:06;18.52;;;13.23;;
45940;SDS011;31858;46.008;8.978;2022-12-29T03:02:20;20.15;;;13.38;;
45940;SDS011;31858;46.008;8.978;2022-12-29T03:12:34;16.63;;;11.77;;
45940;SDS011;31858;46.008;8.978;2022-12-29T03:23:00;13.60;;;10.80;;
45940;SDS011;31858;46.008;8.978;2022-12-29T03:33:05;16.73;;;11.32;;
45940;SDS011;31858;46.008;8.978;2022-12-29T03:43:10;15.95;;;11.35;;
45940;SDS011;31858;46.008;8.978;2022-12-29T03:53:15;15.18;;;10.75;;
45940;SDS011;31858;46.008;8.978;2022-12-29T04:03:17;15.82;;;11.82;;
45940;SDS011;31858;46.008;8.978;2022-12-29T04:13:19;14.80;;;10.90;;
45940;SDS011;31858;46.008;8.978;2022-12-29T04:23:21;9.80;;;7.03;;
45940;SDS011;31858;46.008;8.978;2022-12-29T04:33:24;13.20;;;8.85;;
45940;SDS011;31858;46.008;8.978;2022-12-29T04:43:26;16.08;;;11.40;;
45940;SDS011;31858;46.008;8.978;2022-12-29T04:53:30;15.73;;;10.55;;
45940;SDS011;31858;46.008;8.978;2022-12-29T05:03:31;16.98;;;11.38;;
45940;SDS011;31858;46.008;8.978;2022-12-29T05:13:34;15.10;;;9.85;;
45940;SDS011;31858;46.008;8.978;2022-12-29T05:23:36;14.32;;;9.02;;
45940;SDS011;31858;46.008;8.978;2022-12-29T05:33:38;12.02;;;7.97;;
45940;SDS011;31858;46.008;8.978;2022-12-29T05:43:40;13.88;;;7.20;;
45940;SDS011;31858;46.008;8.978;2022-12-29T05:53:43;9.20;;;5.68;;
45940;SDS011;31858;46.008;8.978;2022-12-29T06:03:44;8.02;;;5.38;;
45940;SDS011;31858;46.008;8.978;2022-12-29T06:13:47;8.95;;;6.13;;
45940;SDS011;31858;46.008;8.978;2022-12-29T06:23:49;7.03;;;4.85;;
45940;SDS011;31858;46.008;8.978;2022-12-29T06:33:52;6.50;;;4.85;;
45940;SDS011;31858;46.008;8.978;2022-12-29T06:43:53;7.47;;;4.97;;
45940;SDS011;31858;46.008;8.978;2022-12-29T06:53:56;6.13;;;3.92;;
45940;SDS011;31858;46.008;8.978;2022-12-29T07:03:58;5.05;;;3.25;;
45940;SDS011;31858;46.008;8.978;2022-12-29T07:14:01;5.38;;;4.22;;
45940;SDS011;31858;46.008;8.978;2022-12-29T07:24:03;9.02;;;5.13;;
45940;SDS011;31858;46.008;8.978;2022-12-29T07:34:07;5.47;;;3.97;;
45940;SDS011;31858;46.008;8.978;2022-12-29T07:44:09;11.32;;;3.95;;
45940;SDS011;31858;46.008;8.978;2022-12-29T07:54:12;7.63;;;5.25;;
45940;SDS011;31858;46.008;8.978;2022-12-29T08:04:14;10.77;;;6.57;;
45940;SDS011;31858;46.008;8.978;2022-12-29T08:14:17;7.38;;;5.35;;
45940;SDS011;31858;46.008;8.978;2022-12-29T08:24:19;6.63;;;5.40;;
45940;SDS011;31858;46.008;8.978;2022-12-29T08:34:22;9.40;;;6.05;;
45940;SDS011;31858;46.008;8.978;2022-12-29T08:44:24;10.75;;;6.57;;
45940;SDS011;31858;46.008;8.978;2022-12-29T08:54:26;9.93;;;6.18;;
45940;SDS011;31858;46.008;8.978;2022-12-29T09:04:28;8.10;;;6.10;;
45940;SDS011;31858;46.008;8.978;2022-12-29T09:14:31;10.35;;;7.57;;
45940;SDS011;31858;46.008;8.978;2022-12-29T09:24:32;11.57;;;7.47;;
45940;SDS011;31858;46.008;8.978;2022-12-29T09:34:35;13.13;;;8.70;;
45940;SDS011;31858;46.008;8.978;2022-12-29T09:44:44;10.00;;;7.45;;
45940;SDS011;31858;46.008;8.978;2022-12-29T09:54:55;8.50;;;5.93;;
45940;SDS011;31858;46.008;8.978;2022-12-29T10:04:58;14.75;;;9.30;;
45940;SDS011;31858;46.008;8.978;2022-12-29T10:15:04;13.95;;;9.73;;
45940;SDS011;31858;46.008;8.978;2022-12-29T10:25:16;6.18;;;4.35;;
45940;SDS011;31858;46.008;8.978;2022-12-29T10:35:22;10.38;;;7.80;;
45940;SDS011;31858;46.008;8.978;2022-12-29T10:45:27;12.50;;;7.72;;
45940;SDS011;31858;46.008;8.978;2022-12-29T10:55:35;11.00;;;7.88;;
45940;SDS011;31858;46.008;8.978;2022-12-29T11:05:38;15.75;;;9.43;;
45940;SDS011;31858;46.008;8.978;2022-12-29T11:15:47;12.10;;;9.10;;
45940;SDS011;31858;46.008;8.978;2022-12-29T11:25:59;11.43;;;8.65;;
45940;SDS011;31858;46.008;8.978;2022-12-29T11:36:10;13.27;;;9.70;;
45940;SDS011;31858;46.008;8.978;2022-12-29T11:46:16;10.55;;;8.02;;
45940;SDS011;31858;46.008;8.978;2022-12-29T11:56:30;12.63;;;8.35;;
45940;SDS011;31858;46.008;8.978;2022-12-29T12:06:36;14.43;;;9.15;;
45940;SDS011;31858;46.008;8.978;2022-12-29T12:16:47;14.05;;;9.00;;
45940;SDS011;31858;46.008;8.978;2022-12-29T12:26:55;9.60;;;7.38;;
45940;SDS011;31858;46.008;8.978;2022-12-29T12:37:26;8.38;;;6.18;;
45940;SDS011;31858;46.008;8.978;2022-12-29T12:47:43;7.10;;;5.82;;
45940;SDS011;31858;46.008;8.978;2022-12-29T12:57:59;7.20;;;5.38;;
45940;SDS011;31858;46.008;8.978;2022-12-29T13:08:17;6.80;;;5.15;;
45940;SDS011;31858;46.008;8.978;2022-12-29T13:18:33;7.93;;;4.95;;
45940;SDS011;31858;46.008;8.978;2022-12-29T13:28:48;5.05;;;3.88;;
45940;SDS011;31858;46.008;8.978;2022-12-29T13:38:59;5.45;;;3.80;;
45940;SDS011;31858;46.008;8.978;2022-12-29T13:49:06;8.43;;;5.93;;
45940;SDS011;31858;46.008;8.978;2022-12-29T13:59:14;12.88;;;5.88;;
45940;SDS011;31858;46.008;8.978;2022-12-29T14:09:40;6.60;;;5.20;;
45940;SDS011;31858;46.008;8.978;2022-12-29T14:19:50;7.03;;;6.05;;
45940;SDS011;31858;46.008;8.978;2022-12-29T14:29:53;10.00;;;5.68;;
45940;SDS011;31858;46.008;8.978;2022-12-29T14:40:04;8.43;;;6.05;;
45940;SDS011;31858;46.008;8.978;2022-12-29T14:50:11;9.43;;;6.80;;
45940;SDS011;31858;46.008;8.978;2022-12-29T15:00:18;10.25;;;6.47;;
45940;SDS011;31858;46.008;8.978;2022-12-29T15:10:23;13.98;;;8.25;;
45940;SDS011;31858;46.008;8.978;2022-12-29T15:20:29;7.45;;;5.35;;
45940;SDS011;31858;46.008;8.978;2022-12-29T15:30:31;12.93;;;6.53;;
45940;SDS011;31858;46.008;8.978;2022-12-29T15:40:34;7.93;;;5.85;;
45940;SDS011;31858;46.008;8.978;2022-12-29T15:50:36;11.73;;;7.00;;
45940;SDS011;31858;46.008;8.978;2022-12-29T16:00:40;12.50;;;9.85;;
45940;SDS011;31858;46.008;8.978;2022-12-29T16:10:48;14.80;;;10.27;;
45940;SDS011;31858;46.008;8.978;2022-12-29T16:20:52;14.57;;;8.88;;
45940;SDS011;31858;46.008;8.978;2022-12-29T16:30:58;16.38;;;7.93;;
45940;SDS011;31858;46.008;8.978;2022-12-29T16:41:05;13.23;;;5.07;;
45940;SDS011;31858;46.008;8.978;2022-12-29T16:51:11;13.82;;;9.82;;
45940;SDS011;31858;46.008;8.978;2022-12-29T17:01:16;17.65;;;11.43;;
45940;SDS011;31858;46.008;8.978;2022-12-29T17:11:23;13.77;;;10.57;;
45940;SDS011;31858;46.008;8.978;2022-12-29T17:21:46;17.05;;;12.20;;
45940;SDS011;31858;46.008;8.978;2022-12-29T17:31:48;17.65;;;13.70;;
45940;SDS011;31858;46.008;8.978;2022-12-29T17:41:51;28.20;;;15.27;;
45940;SDS011;31858;46.008;8.978;2022-12-29T17:51:52;22.27;;;15.25;;
45940;SDS011;31858;46.008;8.978;2022-12-29T18:01:55;31.67;;;22.75;;
45940;SDS011;31858;46.008;8.978;2022-12-29T18:11:57;39.55;;;27.77;;
45940;SDS011;31858;46.008;8.978;2022-12-29T18:22:00;37.78;;;25.65;;
45940;SDS011;31858;46.008;8.978;2022-12-29T18:32:01;32.67;;;23.98;;
45940;SDS011;31858;46.008;8.978;2022-12-29T18:42:05;31.80;;;21.50;;
45940;SDS011;31858;46.008;8.978;2022-12-29T18:52:10;21.08;;;13.95;;
45940;SDS011;31858;46.008;8.978;2022-12-29T19:02:15;20.25;;;15.43;;
45940;SDS011;31858;46.008;8.978;2022-12-29T19:12:17;31.50;;;22.48;;
45940;SDS011;31858;46.008;8.978;2022-12-29T19:22:20;30.30;;;22.23;;
45940;SDS011;31858;46.008;8.978;2022-12-29T19:32:22;27.10;;;20.83;;
45940;SDS011;31858;46.008;8.978;2022-12-29T19:42:25;25.00;;;18.52;;
45940;SDS011;31858;46.008;8.978;2022-12-29T19:52:28;38.90;;;28.23;;
45940;SDS011;31858;46.008;8.978;2022-12-29T20:02:32;58.65;;;38.13;;
45940;SDS011;31858;46.008;8.978;2022-12-29T20:12:36;62.42;;;43.88;;
45940;SDS011;31858;46.008;8.978;2022-12-29T20:22:39;70.82;;;48.60;;
45940;SDS011;31858;46.008;8.978;2022-12-29T20:32:41;64.68;;;44.67;;
45940;SDS011;31858;46.008;8.978;2022-12-29T20:42:44;79.72;;;57.38;;
45940;SDS011;31858;46.008;8.978;2022-12-29T20:52:45;78.35;;;53.45;;
45940;SDS011;31858;46.008;8.978;2022-12-29T21:02:48;93.00;;;65.05;;
45940;SDS011;31858;46.008;8.978;2022-12-29T21:12:51;92.35;;;64.28;;
45940;SDS011;31858;46.008;8.978;2022-12-29T21:22:54;93.20;;;64.78;;
45940;SDS011;31858;46.008;8.978;2022-12-29T21:32:56;85.35;;;59.88;;
45940;SDS011;31858;46.008;8.978;2022-12-29T21:42:59;83.65;;;60.33;;
45940;SDS011;31858;46.008;8.978;2022-12-29T21:53:01;90.65;;;61.42;;
45940;SDS011;31858;46.008;8.978;2022-12-29T22:03:04;81.70;;;59.00;;
45940;SDS011;31858;46.008;8.978;2022-12-29T22:13:23;76.03;;;54.67;;
45940;SDS011;31858;46.008;8.978;2022-12-29T22:23:26;58.88;;;42.95;;
45940;SDS011;31858;46.008;8.978;2022-12-29T22:33:27;59.17;;;42.00;;
45940;SDS011;31858;46.008;8.978;2022-12-29T22:43:31;51.20;;;36.20;;
45940;SDS011;31858;46.008;8.978;2022-12-29T22:53:32;48.53;;;35.65;;
45940;SDS011;31858;46.008;8.978;2022-12-29T23:03:35;42.22;;;31.98;;
45940;SDS011;31858;46.008;8.978;2022-12-29T23:13:37;49.85;;;35.60;;
45940;SDS011;31858;46.008;8.978;2022-12-29T23:23:42;61.67;;;44.20;;
45940;SDS011;31858;46.008;8.978;2022-12-29T23:33:56;54.42;;;39.92;;
45940;SDS011;31858;46.008;8.978;2022-12-29T23:43:59;52.65;;;37.88;;
45940;SDS011;31858;46.008;8.978;2022-12-29T23:54:00;61.08;;;39.40;;
